Lake Odessa, Michigan
Current Conditions -  °F | °C
As of 9:34 AM on Thursday 18 Dec 2014 (Local Time) from KY70 Reporting Station
Overcast Overcast  
Wind Chill: 25°   Ceiling: 900
Heat Index: 31°   Visibility: 7mi
Dew Point: 29°   Wind: 6mph
Humidity: 92%   Direction: 280°W
Pressure: 30.2"   Gusts: NA
Location:  42.78°N, 85.14°W
Report Text: KY70 181434Z AUTO 28005KT 7SM OVC009 00/M02 A3020 RMK AO2 T10051016
Loading
Personal Weather Stations






























Interactive Weather Map New forecast layout! Learn more

10-Day Weather Forecast

Advertisements
Track Severe Weather on mobile